createdAt,value
2023-05-12T00:01:30.681Z,14.45
2023-05-12T00:03:57.931Z,14.66
2023-05-12T00:06:25.156Z,14.48
2023-05-12T00:08:52.296Z,14.19
2023-05-12T00:11:19.464Z,14.59
2023-05-12T00:13:46.715Z,14.60
2023-05-12T00:16:15.767Z,14.62
2023-05-12T00:18:42.973Z,13.93
2023-05-12T00:21:10.159Z,14.00
2023-05-12T00:23:37.317Z,14.10
2023-05-12T00:26:05.033Z,14.30
2023-05-12T00:28:32.608Z,14.30
2023-05-12T00:31:04.122Z,14.19
2023-05-12T00:33:31.533Z,14.25
2023-05-12T00:36:00.625Z,14.09
2023-05-12T00:38:28.372Z,14.09
2023-05-12T00:40:55.756Z,14.26
2023-05-12T00:43:22.875Z,13.95
2023-05-12T00:45:50.058Z,13.97
2023-05-12T00:48:17.272Z,13.69
2023-05-12T00:50:44.816Z,14.05
2023-05-12T00:53:13.337Z,14.02
2023-05-12T00:55:40.658Z,13.89
2023-05-12T00:58:08.272Z,14.04
2023-05-12T01:00:36.459Z,13.74
2023-05-12T01:03:04.730Z,13.44
2023-05-12T01:05:39.523Z,14.08
2023-05-12T01:08:07.888Z,13.92
2023-05-12T01:10:36.220Z,14.04
2023-05-12T01:13:03.299Z,14.23
2023-05-12T01:15:32.609Z,14.18
2023-05-12T01:18:03.928Z,14.09
2023-05-12T01:20:33.270Z,13.84
2023-05-12T01:23:02.430Z,14.08
2023-05-12T01:25:32.869Z,14.03
2023-05-12T01:28:02.944Z,13.96
2023-05-12T01:30:32.366Z,13.54
2023-05-12T01:32:59.597Z,13.94
2023-05-12T01:35:26.958Z,13.93
2023-05-12T01:38:03.267Z,13.96
2023-05-12T01:40:32.432Z,13.87
2023-05-12T01:43:00.228Z,13.76
2023-05-12T01:45:31.044Z,13.66
2023-05-12T01:47:58.130Z,13.77
2023-05-12T01:50:25.805Z,13.83
2023-05-12T01:52:53.028Z,13.78
2023-05-12T01:55:20.861Z,13.85
2023-05-12T01:57:54.369Z,13.82
2023-05-12T02:00:21.947Z,13.69
2023-05-12T02:02:51.825Z,13.45
2023-05-12T02:05:19.127Z,13.64
2023-05-12T02:07:49.526Z,13.68
2023-05-12T02:10:18.349Z,13.64
2023-05-12T02:12:45.887Z,13.45
2023-05-12T02:15:13.325Z,13.55
2023-05-12T02:17:45.774Z,13.53
2023-05-12T02:20:14.394Z,13.49
2023-05-12T02:22:43.816Z,12.93
2023-05-12T02:25:11.156Z,13.25
2023-05-12T02:27:38.215Z,13.47
2023-05-12T02:30:06.732Z,12.79
2023-05-12T02:32:33.991Z,13.38
2023-05-12T02:35:01.412Z,13.36
2023-05-12T02:37:28.901Z,13.24
2023-05-12T02:39:56.061Z,13.21
2023-05-12T02:42:24.139Z,13.43
2023-05-12T02:44:51.445Z,12.53
2023-05-12T02:47:18.490Z,12.82
2023-05-12T02:49:45.528Z,13.19
2023-05-12T02:52:13.253Z,12.41
2023-05-12T02:54:40.499Z,12.50
2023-05-12T02:57:07.758Z,13.15
2023-05-12T02:59:34.840Z,13.01
2023-05-12T03:02:02.084Z,13.01
2023-05-12T03:04:29.249Z,12.95
2023-05-12T03:06:57.266Z,12.88
2023-05-12T03:09:24.461Z,13.05
2023-05-12T03:11:51.615Z,12.67
2023-05-12T03:14:20.304Z,12.75
2023-05-12T03:16:47.687Z,12.75
2023-05-12T03:19:14.876Z,12.85
2023-05-12T03:21:42.151Z,12.78
2023-05-12T03:24:09.680Z,12.60
2023-05-12T03:26:37.180Z,12.53
2023-05-12T03:29:04.401Z,12.49
2023-05-12T03:31:31.642Z,12.61
2023-05-12T03:33:58.813Z,12.58
2023-05-12T03:36:26.065Z,12.11
2023-05-12T03:38:53.178Z,12.35
2023-05-12T03:41:20.240Z,12.22
2023-05-12T03:43:47.559Z,12.34
2023-05-12T03:46:15.001Z,12.56
2023-05-12T03:48:42.191Z,12.52
2023-05-12T03:51:09.489Z,12.52
2023-05-12T03:53:36.606Z,12.27
2023-05-12T03:56:07.174Z,12.39
2023-05-12T03:58:34.333Z,12.38
2023-05-12T04:01:04.313Z,12.46
2023-05-12T04:03:31.507Z,12.33
2023-05-12T04:06:03.075Z,12.29
2023-05-12T04:08:31.253Z,12.42
2023-05-12T04:11:01.096Z,12.39
2023-05-12T04:13:29.995Z,12.40
2023-05-12T04:15:58.340Z,12.24
2023-05-12T04:18:29.106Z,12.24
2023-05-12T04:20:56.683Z,12.20
2023-05-12T04:23:24.054Z,12.35
2023-05-12T04:25:51.352Z,12.23
2023-05-12T04:28:18.497Z,11.87
2023-05-12T04:30:45.920Z,11.88
2023-05-12T04:33:13.007Z,11.76
2023-05-12T04:35:41.196Z,11.92
2023-05-12T04:38:13.511Z,12.06
2023-05-12T04:40:42.499Z,12.05
2023-05-12T04:43:59.882Z,12.19
2023-05-12T04:45:59.311Z,12.12
2023-05-12T04:48:28.664Z,12.22
2023-05-12T04:50:59.648Z,12.20
2023-05-12T04:53:27.608Z,12.25
2023-05-12T04:55:56.593Z,12.15
2023-05-12T04:58:24.709Z,11.98
2023-05-12T05:00:53.087Z,11.51
2023-05-12T05:03:20.498Z,12.28
2023-05-12T05:05:49.199Z,12.14
2023-05-12T05:08:17.033Z,12.11
2023-05-12T05:10:44.235Z,12.12
2023-05-12T05:13:11.368Z,12.00
2023-05-12T05:15:38.579Z,12.38
2023-05-12T05:18:06.121Z,12.26
2023-05-12T05:20:34.698Z,12.34
2023-05-12T05:23:02.185Z,12.36
2023-05-12T05:25:29.439Z,12.39
2023-05-12T05:27:56.613Z,12.27
2023-05-12T05:30:23.823Z,12.47
2023-05-12T05:32:51.210Z,12.51
2023-05-12T05:35:18.900Z,12.28
2023-05-12T05:37:48.635Z,12.36
2023-05-12T05:40:15.819Z,12.18
2023-05-12T05:42:43.328Z,12.36
2023-05-12T05:45:11.422Z,12.03
2023-05-12T05:47:40.372Z,12.10
2023-05-12T05:50:09.058Z,11.92
2023-05-12T05:52:38.783Z,12.20
2023-05-12T05:55:06.552Z,12.19
2023-05-12T05:57:33.688Z,12.28
2023-05-12T06:00:00.996Z,12.24
2023-05-12T06:02:28.632Z,12.16
2023-05-12T06:04:55.834Z,12.31
2023-05-12T06:07:23.073Z,11.98
2023-05-12T06:09:50.318Z,11.95
2023-05-12T06:12:17.398Z,11.89
2023-05-12T06:14:44.568Z,11.80
2023-05-12T06:17:11.973Z,11.96
2023-05-12T06:19:39.585Z,12.01
2023-05-12T06:22:06.789Z,12.24
2023-05-12T06:24:33.836Z,11.94
2023-05-12T06:27:01.502Z,12.03
2023-05-12T06:29:28.722Z,11.77
2023-05-12T06:31:55.912Z,11.99
2023-05-12T06:34:23.228Z,12.29
2023-05-12T06:36:50.319Z,12.34
2023-05-12T06:39:17.534Z,11.80
2023-05-12T06:41:44.584Z,12.35
2023-05-12T06:44:20.157Z,12.45
2023-05-12T06:46:52.261Z,12.16
2023-05-12T06:49:21.324Z,12.29
2023-05-12T06:51:48.446Z,12.50
2023-05-12T06:54:15.571Z,12.43
2023-05-12T06:56:42.642Z,12.52
2023-05-12T06:59:10.009Z,12.57
2023-05-12T07:01:37.176Z,12.40
2023-05-12T07:04:04.599Z,12.30
2023-05-12T07:06:32.563Z,12.52
2023-05-12T07:08:59.709Z,12.32
2023-05-12T07:11:26.933Z,12.58
2023-05-12T07:13:54.152Z,12.65
2023-05-12T07:16:21.556Z,12.44
2023-05-12T07:18:48.835Z,12.62
2023-05-12T07:21:15.975Z,12.38
2023-05-12T07:23:43.151Z,12.11
2023-05-12T07:26:10.373Z,12.70
2023-05-12T07:28:38.234Z,12.72
2023-05-12T07:31:07.330Z,12.72
2023-05-12T07:33:35.426Z,12.44
2023-05-12T07:36:04.835Z,12.64
2023-05-12T07:38:32.851Z,12.64
2023-05-12T07:41:00.487Z,12.26
2023-05-12T07:43:27.855Z,12.42
2023-05-12T07:45:56.277Z,12.57
2023-05-12T07:48:23.503Z,12.73
2023-05-12T07:50:50.675Z,12.61
2023-05-12T07:53:17.752Z,12.74
2023-05-12T07:55:45.627Z,12.71
2023-05-12T07:58:13.109Z,12.61
2023-05-12T08:00:40.787Z,12.92
2023-05-12T08:03:07.910Z,12.81
2023-05-12T08:05:35.242Z,12.82
2023-05-12T08:08:02.442Z,12.88
2023-05-12T08:10:30.192Z,12.70
2023-05-12T08:12:57.917Z,12.97
2023-05-12T08:15:25.269Z,13.00
2023-05-12T08:17:52.360Z,12.71
2023-05-12T08:20:19.482Z,12.50
2023-05-12T08:22:47.979Z,12.77
2023-05-12T08:25:15.193Z,12.93
2023-05-12T08:27:42.456Z,12.54
2023-05-12T08:30:10.061Z,12.65
2023-05-12T08:32:37.661Z,12.79
2023-05-12T08:35:05.283Z,12.87
2023-05-12T08:37:34.546Z,12.82
2023-05-12T08:40:02.385Z,12.92
2023-05-12T08:42:42.692Z,13.12
2023-05-12T08:45:11.736Z,13.02
2023-05-12T08:47:39.078Z,13.24
2023-05-12T08:50:06.870Z,12.57
2023-05-12T08:52:35.643Z,13.16
2023-05-12T08:55:04.842Z,13.21
2023-05-12T08:57:33.686Z,13.28
2023-05-12T09:00:03.029Z,13.27
2023-05-12T09:02:48.375Z,13.03
2023-05-12T09:05:19.831Z,13.36
2023-05-12T09:07:49.860Z,13.22
2023-05-12T09:10:34.605Z,13.38
2023-05-12T09:13:17.600Z,13.35
2023-05-12T09:15:47.619Z,13.39
2023-05-12T09:18:14.942Z,13.16
2023-05-12T09:20:42.692Z,13.44
2023-05-12T09:23:22.153Z,13.58
2023-05-12T09:26:01.338Z,13.38
2023-05-12T09:28:56.000Z,13.67
2023-05-12T09:31:25.045Z,13.78
2023-05-12T09:33:52.470Z,13.83
2023-05-12T09:36:23.899Z,13.55
2023-05-12T09:39:00.794Z,13.80
2023-05-12T09:41:27.929Z,13.83
2023-05-12T09:43:55.070Z,13.88
2023-05-12T09:46:22.900Z,13.88
2023-05-12T09:48:50.066Z,13.87
2023-05-12T09:51:20.997Z,13.89
2023-05-12T09:53:48.664Z,13.82
2023-05-12T09:56:17.777Z,13.98
2023-05-12T09:58:47.363Z,13.52
2023-05-12T10:01:22.829Z,13.93
2023-05-12T10:03:59.818Z,13.84
2023-05-12T10:06:30.345Z,13.90
2023-05-12T10:09:22.393Z,14.06
2023-05-12T10:11:53.744Z,14.09
2023-05-12T10:14:23.127Z,14.13
2023-05-12T10:16:51.316Z,13.98
2023-05-12T10:19:20.364Z,14.14
2023-05-12T10:21:47.953Z,13.97
2023-05-12T10:24:17.004Z,14.03
2023-05-12T10:26:44.850Z,14.19
2023-05-12T10:29:13.131Z,14.16
2023-05-12T10:31:40.926Z,14.20
2023-05-12T10:34:08.168Z,13.77
2023-05-12T10:36:49.834Z,13.92
2023-05-12T10:39:17.481Z,14.30
2023-05-12T10:41:44.609Z,14.38
2023-05-12T10:44:12.169Z,13.56
2023-05-12T10:46:39.418Z,14.18
2023-05-12T10:49:06.633Z,14.30
2023-05-12T10:51:37.905Z,14.25
2023-05-12T10:54:11.345Z,14.22
2023-05-12T10:56:38.858Z,14.29
2023-05-12T10:59:14.923Z,14.20
2023-05-12T11:01:44.838Z,14.37
2023-05-12T11:04:17.778Z,14.48
2023-05-12T11:06:46.653Z,14.43
2023-05-12T11:09:15.455Z,14.52
2023-05-12T11:11:45.651Z,14.17
2023-05-12T11:14:13.184Z,14.41
2023-05-12T11:16:44.792Z,14.63
2023-05-12T11:19:12.770Z,14.64
2023-05-12T11:21:40.522Z,14.56
2023-05-12T11:24:08.214Z,14.65
2023-05-12T11:26:35.329Z,14.80
2023-05-12T11:29:04.917Z,14.55
2023-05-12T11:31:32.093Z,14.53
2023-05-12T11:34:12.079Z,14.78
2023-05-12T11:36:42.787Z,14.72
2023-05-12T11:39:23.474Z,14.75
2023-05-12T11:41:56.608Z,14.54
2023-05-12T11:44:29.560Z,14.55
2023-05-12T11:47:11.424Z,14.81
2023-05-12T11:49:49.907Z,14.87
2023-05-12T11:52:19.552Z,14.85
2023-05-12T11:55:13.100Z,14.83
2023-05-12T11:57:40.169Z,14.82
2023-05-12T12:00:09.269Z,14.97
2023-05-12T12:02:37.678Z,14.79
2023-05-12T12:05:07.783Z,15.02
2023-05-12T12:07:36.927Z,15.10
2023-05-12T12:10:14.972Z,15.02
2023-05-12T12:12:43.085Z,14.73
2023-05-12T12:15:11.392Z,15.10
2023-05-12T12:17:40.107Z,15.03
2023-05-12T12:20:09.392Z,14.93
2023-05-12T12:22:36.663Z,15.06
2023-05-12T12:25:04.314Z,14.90
2023-05-12T12:27:31.576Z,14.93
2023-05-12T12:29:58.834Z,15.04
2023-05-12T12:32:26.120Z,15.12
2023-05-12T12:34:53.555Z,15.27
2023-05-12T12:37:20.750Z,15.34
2023-05-12T12:39:48.066Z,14.89
2023-05-12T12:42:15.881Z,15.02
2023-05-12T12:44:43.988Z,15.17
2023-05-12T12:47:11.250Z,15.31
2023-05-12T12:49:38.391Z,15.26
2023-05-12T12:52:05.937Z,15.39
2023-05-12T12:54:33.284Z,15.22
2023-05-12T12:57:00.331Z,15.37
2023-05-12T12:59:27.671Z,15.27
2023-05-12T13:01:54.750Z,15.29
2023-05-12T13:04:23.206Z,15.23
2023-05-12T13:06:50.406Z,15.38
2023-05-12T13:09:19.692Z,15.22
2023-05-12T13:11:47.937Z,15.05
2023-05-12T13:14:15.236Z,15.37
2023-05-12T13:16:43.364Z,15.40
2023-05-12T13:19:10.696Z,15.35
2023-05-12T13:21:37.972Z,15.36
2023-05-12T13:24:05.343Z,15.39
2023-05-12T13:26:32.427Z,15.54
2023-05-12T13:28:59.423Z,15.17
2023-05-12T13:31:27.070Z,15.59
2023-05-12T13:33:54.359Z,15.48
2023-05-12T13:36:21.447Z,15.58
2023-05-12T13:38:48.541Z,15.59
2023-05-12T13:41:15.905Z,15.63
2023-05-12T13:43:43.737Z,15.06
2023-05-12T13:46:10.957Z,15.72
2023-05-12T13:48:38.102Z,15.75
2023-05-12T13:51:05.479Z,15.83
2023-05-12T13:53:32.639Z,15.64
2023-05-12T13:56:15.701Z,15.54
2023-05-12T13:58:42.909Z,15.92
2023-05-12T14:01:10.834Z,15.86
2023-05-12T14:03:38.279Z,15.84
2023-05-12T14:06:05.612Z,15.68
2023-05-12T14:08:32.699Z,15.88
2023-05-12T14:11:00.025Z,15.79
2023-05-12T14:13:28.075Z,15.96
2023-05-12T14:15:55.583Z,15.94
2023-05-12T14:18:23.204Z,16.09
2023-05-12T14:20:51.049Z,16.03
2023-05-12T14:23:18.226Z,15.78
2023-05-12T14:25:45.365Z,15.93
2023-05-12T14:28:15.521Z,15.83
2023-05-12T14:30:43.830Z,16.08
2023-05-12T14:33:11.230Z,16.03
2023-05-12T14:35:38.480Z,15.97
2023-05-12T14:38:05.573Z,15.91
2023-05-12T14:40:32.757Z,15.89
2023-05-12T14:43:00.211Z,15.81
2023-05-12T14:45:27.831Z,15.81
2023-05-12T14:47:55.001Z,15.96
2023-05-12T14:50:22.537Z,16.08
2023-05-12T14:52:50.150Z,15.73
2023-05-12T14:55:17.711Z,16.24
2023-05-12T14:57:45.349Z,16.29
2023-05-12T15:00:14.651Z,16.31
2023-05-12T15:02:44.093Z,16.31
2023-05-12T15:05:13.507Z,15.93
2023-05-12T15:07:41.089Z,15.90
2023-05-12T15:10:09.013Z,16.21
2023-05-12T15:12:36.178Z,16.24
2023-05-12T15:15:06.118Z,16.04
2023-05-12T15:17:33.812Z,16.34
2023-05-12T15:20:00.976Z,16.16
2023-05-12T15:22:31.439Z,16.38
2023-05-12T15:24:59.466Z,16.40
2023-05-12T15:27:27.280Z,16.00
2023-05-12T15:29:54.397Z,16.36
2023-05-12T15:32:21.601Z,15.54
2023-05-12T15:34:48.695Z,16.05
2023-05-12T15:37:15.866Z,16.18
2023-05-12T15:39:43.422Z,16.35
2023-05-12T15:42:12.404Z,16.32
2023-05-12T15:44:39.882Z,16.33
2023-05-12T15:47:06.903Z,16.30
2023-05-12T15:49:34.095Z,16.18
2023-05-12T15:52:01.123Z,16.15
2023-05-12T15:54:28.262Z,16.20
2023-05-12T15:56:55.267Z,16.13
2023-05-12T15:59:22.389Z,15.96
2023-05-12T16:01:49.567Z,16.13
2023-05-12T16:04:16.812Z,15.98
2023-05-12T16:06:46.100Z,16.23
2023-05-12T16:09:13.839Z,16.18
2023-05-12T16:11:41.111Z,16.36
2023-05-12T16:14:08.288Z,16.32
2023-05-12T16:16:35.448Z,16.32
2023-05-12T16:19:03.661Z,16.26
2023-05-12T16:21:30.698Z,16.40
2023-05-12T16:23:57.878Z,16.33
2023-05-12T16:26:25.118Z,16.39
2023-05-12T16:28:52.676Z,16.18
2023-05-12T16:31:19.921Z,16.44
2023-05-12T16:33:47.156Z,16.29
2023-05-12T16:36:15.414Z,16.32
2023-05-12T16:38:43.676Z,16.42
2023-05-12T16:41:10.757Z,16.30
2023-05-12T16:43:38.073Z,16.23
2023-05-12T16:46:05.372Z,16.32
2023-05-12T16:48:36.422Z,16.26
2023-05-12T16:51:05.909Z,15.77
2023-05-12T16:53:34.067Z,16.20
2023-05-12T16:56:01.390Z,16.07
2023-05-12T16:58:32.296Z,16.20
2023-05-12T17:01:01.110Z,16.17
2023-05-12T17:03:29.249Z,16.03
2023-05-12T17:05:56.571Z,16.01
2023-05-12T17:08:24.735Z,16.06
2023-05-12T17:10:51.963Z,15.61
2023-05-12T17:13:19.343Z,15.99
2023-05-12T17:15:47.068Z,15.71
2023-05-12T17:18:14.376Z,15.61
2023-05-12T17:20:41.791Z,16.07
2023-05-12T17:23:09.368Z,15.93
2023-05-12T17:25:36.784Z,15.94
2023-05-12T17:28:04.684Z,15.33
2023-05-12T17:30:32.245Z,15.98
2023-05-12T17:32:59.449Z,15.89
2023-05-12T17:35:26.835Z,15.95
2023-05-12T17:37:55.647Z,15.89
2023-05-12T17:40:23.133Z,15.93
2023-05-12T17:42:50.478Z,15.94
2023-05-12T17:45:18.058Z,15.89
2023-05-12T17:47:45.683Z,15.91
2023-05-12T17:50:15.049Z,15.58
2023-05-12T17:52:43.535Z,15.77
2023-05-12T17:55:11.359Z,15.60
2023-05-12T17:57:38.591Z,15.58
2023-05-12T18:00:10.395Z,15.81
2023-05-12T18:02:44.777Z,15.88
2023-05-12T18:05:12.500Z,15.79
2023-05-12T18:07:39.693Z,15.63
2023-05-12T18:10:08.411Z,15.58
2023-05-12T18:12:36.684Z,15.78
2023-05-12T18:15:05.460Z,15.68
2023-05-12T18:17:32.910Z,15.37
2023-05-12T18:20:00.367Z,15.34
2023-05-12T18:22:27.537Z,15.60
2023-05-12T18:24:55.194Z,15.65
2023-05-12T18:27:22.469Z,15.70
2023-05-12T18:29:49.573Z,15.29
2023-05-12T18:32:17.030Z,15.75
2023-05-12T18:34:45.664Z,15.75
2023-05-12T18:37:15.608Z,15.61
2023-05-12T18:39:43.300Z,15.63
2023-05-12T18:42:11.274Z,15.74
2023-05-12T18:44:40.640Z,15.79
2023-05-12T18:47:08.759Z,15.82
2023-05-12T18:49:36.773Z,15.68
2023-05-12T18:52:04.517Z,15.90
2023-05-12T18:54:31.772Z,15.83
2023-05-12T18:56:58.921Z,15.93
2023-05-12T18:59:25.984Z,15.89
2023-05-12T19:01:53.223Z,15.76
2023-05-12T19:04:22.008Z,15.84
2023-05-12T19:06:49.391Z,15.79
2023-05-12T19:09:16.640Z,15.82
2023-05-12T19:11:44.390Z,15.72
2023-05-12T19:14:12.080Z,15.57
2023-05-12T19:16:39.993Z,15.85
2023-05-12T19:19:07.594Z,15.56
2023-05-12T19:21:34.974Z,15.86
2023-05-12T19:24:03.221Z,15.72
2023-05-12T19:26:31.001Z,15.81
2023-05-12T19:28:58.034Z,15.82
2023-05-12T19:31:25.241Z,15.77
2023-05-12T19:33:52.377Z,15.83
2023-05-12T19:36:19.598Z,15.77
2023-05-12T19:38:46.700Z,15.57
2023-05-12T19:41:13.792Z,15.51
2023-05-12T19:43:41.197Z,15.76
2023-05-12T19:46:08.615Z,15.80
2023-05-12T19:48:36.192Z,15.76
2023-05-12T19:51:03.444Z,15.66
2023-05-12T19:53:30.600Z,15.71
2023-05-12T19:55:57.679Z,15.61
2023-05-12T19:58:24.878Z,15.73
2023-05-12T20:00:52.188Z,15.70
2023-05-12T20:03:19.404Z,15.63
2023-05-12T20:05:48.519Z,15.69
2023-05-12T20:08:16.068Z,15.46
2023-05-12T20:10:44.435Z,15.10
2023-05-12T20:13:11.865Z,15.86
2023-05-12T20:15:40.095Z,15.31
2023-05-12T20:18:07.250Z,15.57
2023-05-12T20:20:34.319Z,15.86
2023-05-12T20:23:01.535Z,15.59
2023-05-12T20:25:31.606Z,15.62
2023-05-12T20:27:59.525Z,15.71
2023-05-12T20:30:26.917Z,15.59
2023-05-12T20:32:54.058Z,15.59
2023-05-12T20:35:21.538Z,15.44
2023-05-12T20:37:48.985Z,15.03
2023-05-12T20:40:16.286Z,14.91
2023-05-12T20:42:46.171Z,14.79
2023-05-12T20:45:14.127Z,14.81
2023-05-12T20:47:42.113Z,14.06
2023-05-12T20:50:09.861Z,14.30
2023-05-12T20:52:38.607Z,14.32
2023-05-12T20:55:09.881Z,14.23
2023-05-12T20:57:37.969Z,13.76
2023-05-12T21:00:07.568Z,14.52
2023-05-12T21:02:34.850Z,14.33
2023-05-12T21:05:02.046Z,14.18
2023-05-12T21:07:30.737Z,14.25
2023-05-12T21:10:00.285Z,14.38
2023-05-12T21:12:27.771Z,14.21
2023-05-12T21:14:55.093Z,14.17
2023-05-12T21:17:22.385Z,14.45
2023-05-12T21:19:49.656Z,14.24
2023-05-12T21:22:16.832Z,14.30
2023-05-12T21:24:44.369Z,14.20
2023-05-12T21:27:11.848Z,14.18
2023-05-12T21:29:39.100Z,13.26
2023-05-12T21:32:06.651Z,13.92
2023-05-12T21:34:36.062Z,13.85
2023-05-12T21:37:03.267Z,13.88
2023-05-12T21:39:30.363Z,13.59
2023-05-12T21:41:57.514Z,13.09
2023-05-12T21:44:24.767Z,13.06
2023-05-12T21:46:51.885Z,13.17
2023-05-12T21:49:19.027Z,13.38
2023-05-12T21:51:46.164Z,13.58
2023-05-12T21:54:13.465Z,13.44
2023-05-12T21:56:40.669Z,13.65
2023-05-12T21:59:07.715Z,13.51
2023-05-12T22:01:34.937Z,13.17
2023-05-12T22:04:02.181Z,13.25
2023-05-12T22:06:29.272Z,13.35
2023-05-12T22:08:56.320Z,13.30
2023-05-12T22:11:24.415Z,13.41
2023-05-12T22:13:51.444Z,13.43
2023-05-12T22:16:23.577Z,13.30
2023-05-12T22:18:53.389Z,13.09
2023-05-12T22:21:20.731Z,13.24
2023-05-12T22:23:48.174Z,13.12
2023-05-12T22:26:15.307Z,12.82
2023-05-12T22:28:42.758Z,12.91
2023-05-12T22:31:09.930Z,12.68
2023-05-12T22:33:37.028Z,12.13
2023-05-12T22:36:04.330Z,12.63
2023-05-12T22:38:31.482Z,12.66
2023-05-12T22:40:58.596Z,12.57
2023-05-12T22:43:25.834Z,12.35
2023-05-12T22:45:53.074Z,12.64
2023-05-12T22:48:20.349Z,12.74
2023-05-12T22:50:47.679Z,12.70
2023-05-12T22:53:15.385Z,12.84
2023-05-12T22:55:42.401Z,12.83
2023-05-12T22:58:11.655Z,12.45
2023-05-12T23:00:39.072Z,12.37
2023-05-12T23:03:07.470Z,12.71
2023-05-12T23:05:34.617Z,12.71
2023-05-12T23:08:03.095Z,12.77
2023-05-12T23:10:30.488Z,12.70
2023-05-12T23:12:57.680Z,12.12
2023-05-12T23:15:24.826Z,12.92
2023-05-12T23:17:52.281Z,12.54
2023-05-12T23:20:19.839Z,12.58
2023-05-12T23:22:47.002Z,12.52
2023-05-12T23:25:14.145Z,12.71
2023-05-12T23:27:41.399Z,12.68
2023-05-12T23:30:08.801Z,12.42
2023-05-12T23:32:36.234Z,12.46
2023-05-12T23:35:04.163Z,12.00
2023-05-12T23:37:31.175Z,12.63
2023-05-12T23:39:58.264Z,12.81
2023-05-12T23:42:25.262Z,12.63
2023-05-12T23:44:52.447Z,12.68
2023-05-12T23:47:19.720Z,12.81
2023-05-12T23:49:46.822Z,12.30
2023-05-12T23:52:13.916Z,11.97
2023-05-12T23:54:41.188Z,11.73
2023-05-12T23:57:08.325Z,11.18
2023-05-12T23:59:35.393Z,12.09
